Главная страница
METAR-TAF:

METAR-TAF

Аэропорты :

Ботсфьорд, Норвегия

широта: 70-38N, долгота: 029-44E, высота над уровнем моря: 10 м

Текущие метеонаблюдения

Эта сводка был подготовлена 34 минут назад, в 09:50 UTC
Ветер 6 Узел от южный-юго-западный
Температура -1°C
Влажность 80%
Давление 990 hPa
Видимость 10 км и более
небольшая облачность на высоте 2200 фута
Рассеянная облачность на высоте 4200 фута

METAR: ENBS 230950Z 20006KT 9999 FEW022 BKN042 M01/M04 Q0990

Время: 11:24 (10:24 UTC)


TAF: отсутствует

Метеонаблюдения и прогнозы для более 4000 аэропортов (сводки METAR и TAF).

Имеющиеся станции представлены на карте желтыми и красными точками.

Чтобы увидеть название станции, наведите на нее мышь.

Затем щелкните, чтобы увидеть метеонаблюдения и метеопрогнозы.

Управление картой: чтобы увеличить масштаб, щелкните зеленые кнопки с черным крестиком; чтобы уменьшить масштаб, щелкните зеленую кнопку с тире; для просмотра соседних карт щелкайте зеленые стрелки.


METAR-TAF: